sensor_id;sensor_type;location;lat;lon;timestamp;temperature;humidity
16347;DHT22;8283;48.504;13.734;2023-04-24T00:01:15;18.80;56.70
16347;DHT22;8283;48.504;13.734;2023-04-24T00:04:00;18.80;56.90
16347;DHT22;8283;48.504;13.734;2023-04-24T00:06:45;18.80;57.40
16347;DHT22;8283;48.504;13.734;2023-04-24T00:09:33;18.90;57.40
16347;DHT22;8283;48.504;13.734;2023-04-24T00:12:18;18.80;56.80
16347;DHT22;8283;48.504;13.734;2023-04-24T00:15:03;18.80;57.30
16347;DHT22;8283;48.504;13.734;2023-04-24T00:17:48;18.80;58.60
16347;DHT22;8283;48.504;13.734;2023-04-24T00:20:32;18.70;57.30
16347;DHT22;8283;48.504;13.734;2023-04-24T00:23:17;18.70;58.40
16347;DHT22;8283;48.504;13.734;2023-04-24T00:26:01;18.60;58.20
16347;DHT22;8283;48.504;13.734;2023-04-24T00:28:46;18.60;57.90
16347;DHT22;8283;48.504;13.734;2023-04-24T00:31:30;18.50;58.90
16347;DHT22;8283;48.504;13.734;2023-04-24T00:34:14;18.50;59.50
16347;DHT22;8283;48.504;13.734;2023-04-24T00:36:59;18.40;59.40
16347;DHT22;8283;48.504;13.734;2023-04-24T00:39:43;18.30;59.60
16347;DHT22;8283;48.504;13.734;2023-04-24T00:42:27;18.20;58.90
16347;DHT22;8283;48.504;13.734;2023-04-24T00:45:12;18.20;59.40
16347;DHT22;8283;48.504;13.734;2023-04-24T00:47:57;18.20;59.60
16347;DHT22;8283;48.504;13.734;2023-04-24T00:50:42;18.10;59.30
16347;DHT22;8283;48.504;13.734;2023-04-24T00:53:27;18.10;59.00
16347;DHT22;8283;48.504;13.734;2023-04-24T00:56:11;18.00;59.80
16347;DHT22;8283;48.504;13.734;2023-04-24T00:58:55;18.00;59.50
16347;DHT22;8283;48.504;13.734;2023-04-24T01:01:40;18.00;60.50
16347;DHT22;8283;48.504;13.734;2023-04-24T01:04:26;18.00;59.50
16347;DHT22;8283;48.504;13.734;2023-04-24T01:07:11;18.00;60.00
16347;DHT22;8283;48.504;13.734;2023-04-24T01:09:56;17.90;59.20
16347;DHT22;8283;48.504;13.734;2023-04-24T01:12:41;17.90;59.70
16347;DHT22;8283;48.504;13.734;2023-04-24T01:15:25;17.90;61.30
16347;DHT22;8283;48.504;13.734;2023-04-24T01:18:10;17.80;61.60
16347;DHT22;8283;48.504;13.734;2023-04-24T01:20:57;17.80;61.70
16347;DHT22;8283;48.504;13.734;2023-04-24T01:23:43;17.70;63.10
16347;DHT22;8283;48.504;13.734;2023-04-24T01:26:28;17.60;62.30
16347;DHT22;8283;48.504;13.734;2023-04-24T01:29:13;17.60;62.20
16347;DHT22;8283;48.504;13.734;2023-04-24T01:32:01;17.60;62.50
16347;DHT22;8283;48.504;13.734;2023-04-24T01:34:46;17.50;62.70
16347;DHT22;8283;48.504;13.734;2023-04-24T01:37:32;17.50;63.10
16347;DHT22;8283;48.504;13.734;2023-04-24T01:40:17;17.50;63.30
16347;DHT22;8283;48.504;13.734;2023-04-24T01:43:02;17.40;62.50
16347;DHT22;8283;48.504;13.734;2023-04-24T01:45:48;17.40;62.90
16347;DHT22;8283;48.504;13.734;2023-04-24T01:48:33;17.40;62.00
16347;DHT22;8283;48.504;13.734;2023-04-24T01:51:18;17.40;62.60
16347;DHT22;8283;48.504;13.734;2023-04-24T01:54:02;17.50;61.80
16347;DHT22;8283;48.504;13.734;2023-04-24T01:56:47;17.50;62.00
16347;DHT22;8283;48.504;13.734;2023-04-24T01:59:33;17.40;62.50
16347;DHT22;8283;48.504;13.734;2023-04-24T02:02:19;17.50;64.30
16347;DHT22;8283;48.504;13.734;2023-04-24T02:05:06;17.40;62.90
16347;DHT22;8283;48.504;13.734;2023-04-24T02:07:54;17.40;62.80
16347;DHT22;8283;48.504;13.734;2023-04-24T02:10:38;17.40;62.20
16347;DHT22;8283;48.504;13.734;2023-04-24T02:13:23;17.40;62.30
16347;DHT22;8283;48.504;13.734;2023-04-24T02:16:08;17.40;62.30
16347;DHT22;8283;48.504;13.734;2023-04-24T02:18:52;17.40;62.20
16347;DHT22;8283;48.504;13.734;2023-04-24T02:21:36;17.50;61.90
16347;DHT22;8283;48.504;13.734;2023-04-24T02:24:20;17.50;61.90
16347;DHT22;8283;48.504;13.734;2023-04-24T02:27:05;17.50;62.10
16347;DHT22;8283;48.504;13.734;2023-04-24T02:29:49;17.50;61.70
16347;DHT22;8283;48.504;13.734;2023-04-24T02:32:34;17.50;61.70
16347;DHT22;8283;48.504;13.734;2023-04-24T02:35:18;17.60;61.90
16347;DHT22;8283;48.504;13.734;2023-04-24T02:38:03;17.50;61.60
16347;DHT22;8283;48.504;13.734;2023-04-24T02:40:48;17.50;61.70
16347;DHT22;8283;48.504;13.734;2023-04-24T02:43:32;17.50;61.50
16347;DHT22;8283;48.504;13.734;2023-04-24T02:46:17;17.50;61.50
16347;DHT22;8283;48.504;13.734;2023-04-24T02:49:02;17.50;61.40
16347;DHT22;8283;48.504;13.734;2023-04-24T02:51:47;17.50;61.40
16347;DHT22;8283;48.504;13.734;2023-04-24T02:54:31;17.60;61.60
16347;DHT22;8283;48.504;13.734;2023-04-24T02:57:15;17.60;61.50
16347;DHT22;8283;48.504;13.734;2023-04-24T03:00:00;17.50;61.50
16347;DHT22;8283;48.504;13.734;2023-04-24T03:02:45;17.60;61.60
16347;DHT22;8283;48.504;13.734;2023-04-24T03:05:30;17.60;61.70
16347;DHT22;8283;48.504;13.734;2023-04-24T03:08:15;17.60;61.60
16347;DHT22;8283;48.504;13.734;2023-04-24T03:11:00;17.60;61.60
16347;DHT22;8283;48.504;13.734;2023-04-24T03:13:44;17.60;61.70
16347;DHT22;8283;48.504;13.734;2023-04-24T03:16:29;17.60;62.40
16347;DHT22;8283;48.504;13.734;2023-04-24T03:19:13;17.60;61.70
16347;DHT22;8283;48.504;13.734;2023-04-24T03:22:11;17.60;61.90
16347;DHT22;8283;48.504;13.734;2023-04-24T03:24:57;17.60;61.60
16347;DHT22;8283;48.504;13.734;2023-04-24T03:27:42;17.60;61.60
16347;DHT22;8283;48.504;13.734;2023-04-24T03:30:46;17.60;61.70
16347;DHT22;8283;48.504;13.734;2023-04-24T03:33:32;17.60;61.60
16347;DHT22;8283;48.504;13.734;2023-04-24T03:36:18;17.60;61.60
16347;DHT22;8283;48.504;13.734;2023-04-24T03:39:03;17.60;61.60
16347;DHT22;8283;48.504;13.734;2023-04-24T03:41:51;17.60;61.60
16347;DHT22;8283;48.504;13.734;2023-04-24T03:44:40;17.60;61.60
16347;DHT22;8283;48.504;13.734;2023-04-24T03:47:25;17.60;61.60
16347;DHT22;8283;48.504;13.734;2023-04-24T03:50:12;17.60;61.60
16347;DHT22;8283;48.504;13.734;2023-04-24T03:52:57;17.60;61.50
16347;DHT22;8283;48.504;13.734;2023-04-24T03:55:52;17.60;61.50
16347;DHT22;8283;48.504;13.734;2023-04-24T03:58:37;17.60;61.50
16347;DHT22;8283;48.504;13.734;2023-04-24T04:01:22;17.60;61.30
16347;DHT22;8283;48.504;13.734;2023-04-24T04:04:17;17.60;61.30
16347;DHT22;8283;48.504;13.734;2023-04-24T04:07:02;17.60;61.30
16347;DHT22;8283;48.504;13.734;2023-04-24T04:09:48;17.60;61.30
16347;DHT22;8283;48.504;13.734;2023-04-24T04:12:33;17.50;61.40
16347;DHT22;8283;48.504;13.734;2023-04-24T04:15:18;17.60;61.60
16347;DHT22;8283;48.504;13.734;2023-04-24T04:18:02;17.50;61.50
16347;DHT22;8283;48.504;13.734;2023-04-24T04:20:59;17.50;61.60
16347;DHT22;8283;48.504;13.734;2023-04-24T04:23:52;17.50;63.00
16347;DHT22;8283;48.504;13.734;2023-04-24T04:26:43;17.50;61.50
16347;DHT22;8283;48.504;13.734;2023-04-24T04:29:35;17.50;61.50
16347;DHT22;8283;48.504;13.734;2023-04-24T04:32:21;17.50;61.60
16347;DHT22;8283;48.504;13.734;2023-04-24T04:35:06;17.50;61.70
16347;DHT22;8283;48.504;13.734;2023-04-24T04:37:51;17.50;61.90
16347;DHT22;8283;48.504;13.734;2023-04-24T04:40:46;17.50;62.00
16347;DHT22;8283;48.504;13.734;2023-04-24T04:43:31;17.60;62.10
16347;DHT22;8283;48.504;13.734;2023-04-24T04:46:18;17.50;62.10
16347;DHT22;8283;48.504;13.734;2023-04-24T04:49:14;17.50;62.20
16347;DHT22;8283;48.504;13.734;2023-04-24T04:52:00;17.50;62.20
16347;DHT22;8283;48.504;13.734;2023-04-24T04:54:46;17.50;62.60
16347;DHT22;8283;48.504;13.734;2023-04-24T04:57:30;17.50;62.60
16347;DHT22;8283;48.504;13.734;2023-04-24T05:00:15;17.50;62.50
16347;DHT22;8283;48.504;13.734;2023-04-24T05:03:06;17.50;63.00
16347;DHT22;8283;48.504;13.734;2023-04-24T05:05:50;17.50;63.40
16347;DHT22;8283;48.504;13.734;2023-04-24T05:08:36;17.50;62.70
16347;DHT22;8283;48.504;13.734;2023-04-24T05:11:23;17.60;62.80
16347;DHT22;8283;48.504;13.734;2023-04-24T05:14:07;17.50;62.80
16347;DHT22;8283;48.504;13.734;2023-04-24T05:16:56;17.60;63.00
16347;DHT22;8283;48.504;13.734;2023-04-24T05:19:43;17.60;63.00
16347;DHT22;8283;48.504;13.734;2023-04-24T05:22:30;17.60;62.90
16347;DHT22;8283;48.504;13.734;2023-04-24T05:25:14;17.70;62.90
16347;DHT22;8283;48.504;13.734;2023-04-24T05:28:09;17.70;62.90
16347;DHT22;8283;48.504;13.734;2023-04-24T05:30:54;17.70;62.50
16347;DHT22;8283;48.504;13.734;2023-04-24T05:33:43;17.80;62.70
16347;DHT22;8283;48.504;13.734;2023-04-24T05:36:28;17.80;62.60
16347;DHT22;8283;48.504;13.734;2023-04-24T05:39:13;17.80;62.40
16347;DHT22;8283;48.504;13.734;2023-04-24T05:41:57;17.80;62.40
16347;DHT22;8283;48.504;13.734;2023-04-24T05:44:42;17.80;62.40
16347;DHT22;8283;48.504;13.734;2023-04-24T05:47:26;17.80;62.50
16347;DHT22;8283;48.504;13.734;2023-04-24T05:50:12;17.90;62.70
16347;DHT22;8283;48.504;13.734;2023-04-24T05:52:56;17.80;62.40
16347;DHT22;8283;48.504;13.734;2023-04-24T05:55:47;17.80;62.40
16347;DHT22;8283;48.504;13.734;2023-04-24T05:58:32;17.90;62.40
16347;DHT22;8283;48.504;13.734;2023-04-24T06:01:17;18.00;62.40
16347;DHT22;8283;48.504;13.734;2023-04-24T06:04:06;17.90;62.50
16347;DHT22;8283;48.504;13.734;2023-04-24T06:06:50;17.90;62.40
16347;DHT22;8283;48.504;13.734;2023-04-24T06:09:40;17.90;62.70
16347;DHT22;8283;48.504;13.734;2023-04-24T06:12:25;18.00;62.80
16347;DHT22;8283;48.504;13.734;2023-04-24T06:15:17;18.00;62.90
16347;DHT22;8283;48.504;13.734;2023-04-24T06:18:15;18.10;63.00
16347;DHT22;8283;48.504;13.734;2023-04-24T06:21:00;18.10;62.80
16347;DHT22;8283;48.504;13.734;2023-04-24T06:23:45;18.20;63.00
16347;DHT22;8283;48.504;13.734;2023-04-24T06:26:30;18.20;62.90
16347;DHT22;8283;48.504;13.734;2023-04-24T06:29:15;18.20;62.70
16347;DHT22;8283;48.504;13.734;2023-04-24T06:31:59;18.30;62.60
16347;DHT22;8283;48.504;13.734;2023-04-24T06:34:44;18.30;62.70
16347;DHT22;8283;48.504;13.734;2023-04-24T06:37:30;18.30;62.90
16347;DHT22;8283;48.504;13.734;2023-04-24T06:40:14;18.30;62.40
16347;DHT22;8283;48.504;13.734;2023-04-24T06:42:59;18.30;62.30
16347;DHT22;8283;48.504;13.734;2023-04-24T06:45:44;18.20;62.80
16347;DHT22;8283;48.504;13.734;2023-04-24T06:48:29;18.20;62.40
16347;DHT22;8283;48.504;13.734;2023-04-24T06:51:13;18.30;62.60
16347;DHT22;8283;48.504;13.734;2023-04-24T06:53:58;18.30;62.60
16347;DHT22;8283;48.504;13.734;2023-04-24T06:56:43;18.30;62.70
16347;DHT22;8283;48.504;13.734;2023-04-24T06:59:29;18.30;62.50
16347;DHT22;8283;48.504;13.734;2023-04-24T07:02:14;18.40;62.60
16347;DHT22;8283;48.504;13.734;2023-04-24T07:04:59;18.40;62.70
16347;DHT22;8283;48.504;13.734;2023-04-24T07:07:43;18.40;62.70
16347;DHT22;8283;48.504;13.734;2023-04-24T07:10:28;18.50;62.90
16347;DHT22;8283;48.504;13.734;2023-04-24T07:13:13;18.50;62.90
16347;DHT22;8283;48.504;13.734;2023-04-24T07:15:58;18.60;62.40
16347;DHT22;8283;48.504;13.734;2023-04-24T07:18:42;18.60;62.30
16347;DHT22;8283;48.504;13.734;2023-04-24T07:21:26;18.60;62.30
16347;DHT22;8283;48.504;13.734;2023-04-24T07:24:11;18.60;62.20
16347;DHT22;8283;48.504;13.734;2023-04-24T07:26:56;18.70;62.40
16347;DHT22;8283;48.504;13.734;2023-04-24T07:29:41;18.70;62.60
16347;DHT22;8283;48.504;13.734;2023-04-24T07:32:25;18.80;62.50
16347;DHT22;8283;48.504;13.734;2023-04-24T07:35:10;18.90;62.70
16347;DHT22;8283;48.504;13.734;2023-04-24T07:37:54;18.80;62.70
16347;DHT22;8283;48.504;13.734;2023-04-24T07:40:39;18.90;62.70
16347;DHT22;8283;48.504;13.734;2023-04-24T07:43:23;19.00;62.60
16347;DHT22;8283;48.504;13.734;2023-04-24T07:46:08;19.00;62.60
16347;DHT22;8283;48.504;13.734;2023-04-24T07:48:53;19.10;62.70
16347;DHT22;8283;48.504;13.734;2023-04-24T07:51:37;19.10;62.40
16347;DHT22;8283;48.504;13.734;2023-04-24T07:54:22;19.10;62.30
16347;DHT22;8283;48.504;13.734;2023-04-24T07:57:07;19.20;62.40
16347;DHT22;8283;48.504;13.734;2023-04-24T07:59:52;19.20;62.20
16347;DHT22;8283;48.504;13.734;2023-04-24T08:02:36;19.20;62.10
16347;DHT22;8283;48.504;13.734;2023-04-24T08:05:20;19.20;62.00
16347;DHT22;8283;48.504;13.734;2023-04-24T08:08:05;19.30;62.20
16347;DHT22;8283;48.504;13.734;2023-04-24T08:10:50;19.30;62.20
16347;DHT22;8283;48.504;13.734;2023-04-24T08:13:34;19.20;61.80
16347;DHT22;8283;48.504;13.734;2023-04-24T08:16:19;19.30;61.80
16347;DHT22;8283;48.504;13.734;2023-04-24T08:19:03;19.30;61.70
16347;DHT22;8283;48.504;13.734;2023-04-24T08:21:48;19.20;61.70
16347;DHT22;8283;48.504;13.734;2023-04-24T08:24:32;19.20;61.70
16347;DHT22;8283;48.504;13.734;2023-04-24T08:27:16;19.20;61.90
16347;DHT22;8283;48.504;13.734;2023-04-24T08:30:01;19.20;61.60
16347;DHT22;8283;48.504;13.734;2023-04-24T08:32:46;19.20;62.30
16347;DHT22;8283;48.504;13.734;2023-04-24T08:35:30;19.10;61.60
16347;DHT22;8283;48.504;13.734;2023-04-24T08:38:16;19.10;61.60
16347;DHT22;8283;48.504;13.734;2023-04-24T08:41:01;19.10;62.00
16347;DHT22;8283;48.504;13.734;2023-04-24T08:43:46;19.00;62.00
16347;DHT22;8283;48.504;13.734;2023-04-24T08:46:30;19.00;62.10
16347;DHT22;8283;48.504;13.734;2023-04-24T08:49:15;19.10;62.40
16347;DHT22;8283;48.504;13.734;2023-04-24T08:52:02;19.10;62.50
16347;DHT22;8283;48.504;13.734;2023-04-24T08:54:47;19.10;62.60
16347;DHT22;8283;48.504;13.734;2023-04-24T08:57:32;19.20;62.90
16347;DHT22;8283;48.504;13.734;2023-04-24T09:00:21;19.20;62.80
16347;DHT22;8283;48.504;13.734;2023-04-24T09:03:06;19.30;62.80
16347;DHT22;8283;48.504;13.734;2023-04-24T09:05:50;19.40;62.80
16347;DHT22;8283;48.504;13.734;2023-04-24T09:08:36;19.40;62.80
16347;DHT22;8283;48.504;13.734;2023-04-24T09:11:22;19.50;62.70
16347;DHT22;8283;48.504;13.734;2023-04-24T09:14:09;19.50;62.80
16347;DHT22;8283;48.504;13.734;2023-04-24T09:16:54;19.60;62.70
16347;DHT22;8283;48.504;13.734;2023-04-24T09:19:40;19.70;62.50
16347;DHT22;8283;48.504;13.734;2023-04-24T09:22:24;19.70;62.40
16347;DHT22;8283;48.504;13.734;2023-04-24T09:25:10;19.70;62.40
16347;DHT22;8283;48.504;13.734;2023-04-24T09:28:03;19.80;62.60
16347;DHT22;8283;48.504;13.734;2023-04-24T09:31:05;19.80;63.10
16347;DHT22;8283;48.504;13.734;2023-04-24T09:34:04;19.80;63.50
16347;DHT22;8283;48.504;13.734;2023-04-24T09:36:52;20.00;63.60
16347;DHT22;8283;48.504;13.734;2023-04-24T09:39:37;20.10;62.80
16347;DHT22;8283;48.504;13.734;2023-04-24T09:42:25;20.20;62.60
16347;DHT22;8283;48.504;13.734;2023-04-24T09:45:10;20.30;63.00
16347;DHT22;8283;48.504;13.734;2023-04-24T09:47:55;20.40;63.10
16347;DHT22;8283;48.504;13.734;2023-04-24T09:50:45;20.40;63.20
16347;DHT22;8283;48.504;13.734;2023-04-24T09:53:30;20.60;62.40
16347;DHT22;8283;48.504;13.734;2023-04-24T09:56:16;20.70;63.50
16347;DHT22;8283;48.504;13.734;2023-04-24T09:59:05;20.80;63.50
16347;DHT22;8283;48.504;13.734;2023-04-24T10:01:50;21.00;63.70
16347;DHT22;8283;48.504;13.734;2023-04-24T10:04:34;21.10;63.10
16347;DHT22;8283;48.504;13.734;2023-04-24T10:07:18;21.20;61.40
16347;DHT22;8283;48.504;13.734;2023-04-24T10:10:03;21.30;61.50
16347;DHT22;8283;48.504;13.734;2023-04-24T10:12:47;21.30;61.60
16347;DHT22;8283;48.504;13.734;2023-04-24T10:15:32;21.30;61.80
16347;DHT22;8283;48.504;13.734;2023-04-24T10:18:17;21.40;61.70
16347;DHT22;8283;48.504;13.734;2023-04-24T10:21:01;21.40;61.80
16347;DHT22;8283;48.504;13.734;2023-04-24T10:23:46;21.50;61.70
16347;DHT22;8283;48.504;13.734;2023-04-24T10:26:32;21.60;62.10
16347;DHT22;8283;48.504;13.734;2023-04-24T10:29:18;21.70;62.10
16347;DHT22;8283;48.504;13.734;2023-04-24T10:32:03;21.90;62.20
16347;DHT22;8283;48.504;13.734;2023-04-24T10:34:48;22.00;61.60
16347;DHT22;8283;48.504;13.734;2023-04-24T10:37:40;22.10;61.00
16347;DHT22;8283;48.504;13.734;2023-04-24T10:40:31;22.20;60.90
16347;DHT22;8283;48.504;13.734;2023-04-24T10:43:17;22.50;61.20
16347;DHT22;8283;48.504;13.734;2023-04-24T10:46:05;22.50;60.30
16347;DHT22;8283;48.504;13.734;2023-04-24T10:48:54;22.60;59.60
16347;DHT22;8283;48.504;13.734;2023-04-24T10:54:36;22.50;59.00
16347;DHT22;8283;48.504;13.734;2023-04-24T11:00:16;22.30;57.90
16347;DHT22;8283;48.504;13.734;2023-04-24T11:03:05;22.20;57.90
16347;DHT22;8283;48.504;13.734;2023-04-24T11:05:56;22.00;57.70
16347;DHT22;8283;48.504;13.734;2023-04-24T11:08:45;21.90;58.10
16347;DHT22;8283;48.504;13.734;2023-04-24T11:11:30;21.80;58.60
16347;DHT22;8283;48.504;13.734;2023-04-24T11:14:15;21.70;58.40
16347;DHT22;8283;48.504;13.734;2023-04-24T11:16:59;21.60;58.80
16347;DHT22;8283;48.504;13.734;2023-04-24T11:19:50;21.70;59.10
16347;DHT22;8283;48.504;13.734;2023-04-24T11:22:37;21.60;59.00
16347;DHT22;8283;48.504;13.734;2023-04-24T11:25:22;21.60;58.90
16347;DHT22;8283;48.504;13.734;2023-04-24T11:28:14;21.60;58.70
16347;DHT22;8283;48.504;13.734;2023-04-24T11:31:43;21.60;58.90
16347;DHT22;8283;48.504;13.734;2023-04-24T11:34:32;21.50;58.70
16347;DHT22;8283;48.504;13.734;2023-04-24T11:37:16;21.50;58.40
16347;DHT22;8283;48.504;13.734;2023-04-24T11:40:02;21.30;58.00
16347;DHT22;8283;48.504;13.734;2023-04-24T11:42:49;21.20;58.40
16347;DHT22;8283;48.504;13.734;2023-04-24T11:45:33;21.00;58.20
16347;DHT22;8283;48.504;13.734;2023-04-24T11:48:19;20.90;58.30
16347;DHT22;8283;48.504;13.734;2023-04-24T11:51:04;20.70;58.40
16347;DHT22;8283;48.504;13.734;2023-04-24T11:53:48;20.60;58.60
16347;DHT22;8283;48.504;13.734;2023-04-24T11:56:33;20.40;58.60
16347;DHT22;8283;48.504;13.734;2023-04-24T11:59:18;20.30;59.40
16347;DHT22;8283;48.504;13.734;2023-04-24T12:02:03;20.30;59.80
16347;DHT22;8283;48.504;13.734;2023-04-24T12:04:48;20.20;59.80
16347;DHT22;8283;48.504;13.734;2023-04-24T12:07:41;20.40;60.80
16347;DHT22;8283;48.504;13.734;2023-04-24T12:10:30;20.60;61.70
16347;DHT22;8283;48.504;13.734;2023-04-24T12:13:15;20.80;60.30
16347;DHT22;8283;48.504;13.734;2023-04-24T12:16:02;20.90;60.60
16347;DHT22;8283;48.504;13.734;2023-04-24T12:18:46;21.10;60.40
16347;DHT22;8283;48.504;13.734;2023-04-24T12:21:31;21.30;59.80
16347;DHT22;8283;48.504;13.734;2023-04-24T12:24:16;21.30;59.00
16347;DHT22;8283;48.504;13.734;2023-04-24T12:27:01;21.40;58.90
16347;DHT22;8283;48.504;13.734;2023-04-24T12:29:56;21.50;59.70
16347;DHT22;8283;48.504;13.734;2023-04-24T12:32:48;21.50;59.70
16347;DHT22;8283;48.504;13.734;2023-04-24T12:35:33;21.70;56.20
16347;DHT22;8283;48.504;13.734;2023-04-24T12:38:22;21.80;58.20
16347;DHT22;8283;48.504;13.734;2023-04-24T12:41:09;22.00;58.40
16347;DHT22;8283;48.504;13.734;2023-04-24T12:43:54;22.20;58.40
16347;DHT22;8283;48.504;13.734;2023-04-24T12:46:39;22.30;59.00
16347;DHT22;8283;48.504;13.734;2023-04-24T12:49:24;22.60;58.40
16347;DHT22;8283;48.504;13.734;2023-04-24T12:52:08;22.70;58.30
16347;DHT22;8283;48.504;13.734;2023-04-24T12:54:55;22.70;57.40
16347;DHT22;8283;48.504;13.734;2023-04-24T12:57:40;23.00;57.00
16347;DHT22;8283;48.504;13.734;2023-04-24T13:00:24;23.30;57.30
16347;DHT22;8283;48.504;13.734;2023-04-24T13:03:08;23.30;57.00
16347;DHT22;8283;48.504;13.734;2023-04-24T13:05:53;23.40;55.90
16347;DHT22;8283;48.504;13.734;2023-04-24T13:08:37;23.40;56.10
16347;DHT22;8283;48.504;13.734;2023-04-24T13:11:21;23.60;56.10
16347;DHT22;8283;48.504;13.734;2023-04-24T13:14:05;23.50;55.10
16347;DHT22;8283;48.504;13.734;2023-04-24T13:16:50;23.50;54.70
16347;DHT22;8283;48.504;13.734;2023-04-24T13:19:38;23.60;55.20
16347;DHT22;8283;48.504;13.734;2023-04-24T13:22:23;23.50;54.40
16347;DHT22;8283;48.504;13.734;2023-04-24T13:25:07;23.50;55.20
16347;DHT22;8283;48.504;13.734;2023-04-24T13:27:52;23.50;55.60
16347;DHT22;8283;48.504;13.734;2023-04-24T13:30:37;23.70;55.80
16347;DHT22;8283;48.504;13.734;2023-04-24T13:33:21;23.70;55.50
16347;DHT22;8283;48.504;13.734;2023-04-24T13:36:06;23.70;55.00
16347;DHT22;8283;48.504;13.734;2023-04-24T13:38:51;23.80;54.70
16347;DHT22;8283;48.504;13.734;2023-04-24T13:41:36;23.80;54.20
16347;DHT22;8283;48.504;13.734;2023-04-24T13:44:21;23.80;54.10
16347;DHT22;8283;48.504;13.734;2023-04-24T13:47:06;23.70;54.00
16347;DHT22;8283;48.504;13.734;2023-04-24T13:49:51;23.60;53.80
16347;DHT22;8283;48.504;13.734;2023-04-24T13:52:37;23.60;53.90
16347;DHT22;8283;48.504;13.734;2023-04-24T13:55:22;23.40;53.70
16347;DHT22;8283;48.504;13.734;2023-04-24T13:58:06;23.30;53.50
16347;DHT22;8283;48.504;13.734;2023-04-24T14:00:51;23.20;53.60
16347;DHT22;8283;48.504;13.734;2023-04-24T14:03:37;23.00;53.10
16347;DHT22;8283;48.504;13.734;2023-04-24T14:06:22;22.80;51.90
16347;DHT22;8283;48.504;13.734;2023-04-24T14:09:07;22.50;52.00
16347;DHT22;8283;48.504;13.734;2023-04-24T14:11:52;22.20;51.80
16347;DHT22;8283;48.504;13.734;2023-04-24T14:14:37;22.00;52.00
16347;DHT22;8283;48.504;13.734;2023-04-24T14:17:21;21.60;51.80
16347;DHT22;8283;48.504;13.734;2023-04-24T14:20:06;21.30;51.80
16347;DHT22;8283;48.504;13.734;2023-04-24T14:22:50;21.10;51.90
16347;DHT22;8283;48.504;13.734;2023-04-24T14:25:35;20.90;53.10
16347;DHT22;8283;48.504;13.734;2023-04-24T14:28:20;20.60;52.70
16347;DHT22;8283;48.504;13.734;2023-04-24T14:31:05;20.40;53.00
16347;DHT22;8283;48.504;13.734;2023-04-24T14:33:49;20.20;53.60
16347;DHT22;8283;48.504;13.734;2023-04-24T14:36:33;20.10;54.00
16347;DHT22;8283;48.504;13.734;2023-04-24T14:39:17;20.10;54.30
16347;DHT22;8283;48.504;13.734;2023-04-24T14:42:02;20.20;54.70
16347;DHT22;8283;48.504;13.734;2023-04-24T14:44:47;20.20;54.70
16347;DHT22;8283;48.504;13.734;2023-04-24T14:47:31;20.20;54.80
16347;DHT22;8283;48.504;13.734;2023-04-24T14:50:15;20.30;55.00
16347;DHT22;8283;48.504;13.734;2023-04-24T14:53:00;20.40;55.20
16347;DHT22;8283;48.504;13.734;2023-04-24T14:55:46;20.40;55.10
16347;DHT22;8283;48.504;13.734;2023-04-24T14:58:30;20.60;55.30
16347;DHT22;8283;48.504;13.734;2023-04-24T15:01:15;20.70;55.20
16347;DHT22;8283;48.504;13.734;2023-04-24T15:03:59;20.80;54.80
16347;DHT22;8283;48.504;13.734;2023-04-24T15:06:43;20.80;54.10
16347;DHT22;8283;48.504;13.734;2023-04-24T15:09:27;20.90;54.60
16347;DHT22;8283;48.504;13.734;2023-04-24T15:12:12;20.90;53.90
16347;DHT22;8283;48.504;13.734;2023-04-24T15:14:58;20.90;53.90
16347;DHT22;8283;48.504;13.734;2023-04-24T15:17:43;20.90;54.10
16347;DHT22;8283;48.504;13.734;2023-04-24T15:20:27;21.00;54.40
16347;DHT22;8283;48.504;13.734;2023-04-24T15:23:11;21.00;54.40
16347;DHT22;8283;48.504;13.734;2023-04-24T15:25:56;21.20;55.50
16347;DHT22;8283;48.504;13.734;2023-04-24T15:28:40;21.40;55.30
16347;DHT22;8283;48.504;13.734;2023-04-24T15:31:24;21.50;55.30
16347;DHT22;8283;48.504;13.734;2023-04-24T15:34:09;21.80;55.00
16347;DHT22;8283;48.504;13.734;2023-04-24T15:36:54;22.00;54.90
16347;DHT22;8283;48.504;13.734;2023-04-24T15:39:39;22.10;53.70
16347;DHT22;8283;48.504;13.734;2023-04-24T15:42:23;22.30;53.70
16347;DHT22;8283;48.504;13.734;2023-04-24T15:45:08;22.30;53.50
16347;DHT22;8283;48.504;13.734;2023-04-24T15:47:52;22.40;53.40
16347;DHT22;8283;48.504;13.734;2023-04-24T15:50:37;22.40;53.30
16347;DHT22;8283;48.504;13.734;2023-04-24T15:53:21;22.40;52.60
16347;DHT22;8283;48.504;13.734;2023-04-24T15:56:06;22.30;52.70
16347;DHT22;8283;48.504;13.734;2023-04-24T15:58:50;22.40;52.80
16347;DHT22;8283;48.504;13.734;2023-04-24T16:01:35;22.30;52.70
16347;DHT22;8283;48.504;13.734;2023-04-24T16:04:20;22.20;52.70
16347;DHT22;8283;48.504;13.734;2023-04-24T16:07:05;22.30;52.60
16347;DHT22;8283;48.504;13.734;2023-04-24T16:09:49;22.20;52.70
16347;DHT22;8283;48.504;13.734;2023-04-24T16:12:34;22.10;52.80
16347;DHT22;8283;48.504;13.734;2023-04-24T16:15:18;22.10;52.70
16347;DHT22;8283;48.504;13.734;2023-04-24T16:18:03;22.20;52.70
16347;DHT22;8283;48.504;13.734;2023-04-24T16:20:47;22.10;52.50
16347;DHT22;8283;48.504;13.734;2023-04-24T16:23:32;22.00;52.50
16347;DHT22;8283;48.504;13.734;2023-04-24T16:26:16;22.00;52.30
16347;DHT22;8283;48.504;13.734;2023-04-24T16:29:01;21.80;52.40
16347;DHT22;8283;48.504;13.734;2023-04-24T16:31:45;21.90;52.50
16347;DHT22;8283;48.504;13.734;2023-04-24T16:34:29;21.80;52.20
16347;DHT22;8283;48.504;13.734;2023-04-24T16:37:14;21.70;51.50
16347;DHT22;8283;48.504;13.734;2023-04-24T16:39:58;21.50;52.00
16347;DHT22;8283;48.504;13.734;2023-04-24T16:42:43;21.40;52.20
16347;DHT22;8283;48.504;13.734;2023-04-24T16:45:27;21.30;51.90
16347;DHT22;8283;48.504;13.734;2023-04-24T16:48:12;21.20;52.10
16347;DHT22;8283;48.504;13.734;2023-04-24T16:50:57;21.20;52.00
16347;DHT22;8283;48.504;13.734;2023-04-24T16:53:41;21.00;51.60
16347;DHT22;8283;48.504;13.734;2023-04-24T16:56:25;20.80;51.60
16347;DHT22;8283;48.504;13.734;2023-04-24T16:59:11;20.70;51.50
16347;DHT22;8283;48.504;13.734;2023-04-24T17:01:55;20.70;51.60
16347;DHT22;8283;48.504;13.734;2023-04-24T17:04:40;20.40;51.50
16347;DHT22;8283;48.504;13.734;2023-04-24T17:07:24;20.30;51.80
16347;DHT22;8283;48.504;13.734;2023-04-24T17:10:09;20.20;51.80
16347;DHT22;8283;48.504;13.734;2023-04-24T17:12:53;20.10;51.00
16347;DHT22;8283;48.504;13.734;2023-04-24T17:15:38;20.00;51.30
16347;DHT22;8283;48.504;13.734;2023-04-24T17:18:23;19.90;50.90
16347;DHT22;8283;48.504;13.734;2023-04-24T17:21:08;19.80;49.10
16347;DHT22;8283;48.504;13.734;2023-04-24T17:23:52;19.70;49.80
16347;DHT22;8283;48.504;13.734;2023-04-24T17:26:37;19.50;50.40
16347;DHT22;8283;48.504;13.734;2023-04-24T17:29:21;19.40;50.70
16347;DHT22;8283;48.504;13.734;2023-04-24T17:32:05;19.30;50.70